sensor_id;sensor_type;location;lat;lon;timestamp;pressure;altitude;pressure_sealevel;temperature;humidity
39141;BME280;24875;48.436;10.298;2023-02-10T00:01:45;98056.00;;;-4.98;95.23
39141;BME280;24875;48.436;10.298;2023-02-10T00:04:12;98060.00;;;-4.88;93.86
39141;BME280;24875;48.436;10.298;2023-02-10T00:06:38;98060.88;;;-4.89;93.68
39141;BME280;24875;48.436;10.298;2023-02-10T00:09:06;98065.41;;;-4.97;93.36
39141;BME280;24875;48.436;10.298;2023-02-10T00:11:34;98068.56;;;-4.88;93.29
39141;BME280;24875;48.436;10.298;2023-02-10T00:14:18;98069.03;;;-5.06;94.44
39141;BME280;24875;48.436;10.298;2023-02-10T00:16:45;98071.50;;;-5.01;94.07
39141;BME280;24875;48.436;10.298;2023-02-10T00:19:12;98070.53;;;-4.97;93.07
39141;BME280;24875;48.436;10.298;2023-02-10T00:21:39;98078.13;;;-4.93;93.67
39141;BME280;24875;48.436;10.298;2023-02-10T00:24:05;98079.00;;;-4.94;94.22
39141;BME280;24875;48.436;10.298;2023-02-10T00:26:31;98076.06;;;-5.12;95.70
39141;BME280;24875;48.436;10.298;2023-02-10T00:28:59;98071.97;;;-4.87;95.88
39141;BME280;24875;48.436;10.298;2023-02-10T00:31:26;98080.06;;;-5.01;94.99
39141;BME280;24875;48.436;10.298;2023-02-10T00:33:52;98084.41;;;-5.04;96.43
39141;BME280;24875;48.436;10.298;2023-02-10T00:36:19;98080.81;;;-4.97;96.89
39141;BME280;24875;48.436;10.298;2023-02-10T00:38:46;98081.50;;;-4.91;97.41
39141;BME280;24875;48.436;10.298;2023-02-10T00:41:15;98084.66;;;-4.82;96.81
39141;BME280;24875;48.436;10.298;2023-02-10T00:43:42;98085.72;;;-4.88;95.37
39141;BME280;24875;48.436;10.298;2023-02-10T00:46:11;98090.69;;;-4.83;93.95
39141;BME280;24875;48.436;10.298;2023-02-10T00:48:38;98091.06;;;-4.96;93.75
39141;BME280;24875;48.436;10.298;2023-02-10T00:51:05;98090.19;;;-4.96;93.97
39141;BME280;24875;48.436;10.298;2023-02-10T00:53:33;98097.75;;;-4.90;93.43
39141;BME280;24875;48.436;10.298;2023-02-10T00:55:59;98097.44;;;-5.10;92.43
39141;BME280;24875;48.436;10.298;2023-02-10T00:58:26;98091.38;;;-5.08;93.66
39141;BME280;24875;48.436;10.298;2023-02-10T01:00:54;98093.19;;;-5.11;94.04
39141;BME280;24875;48.436;10.298;2023-02-10T01:03:22;98086.97;;;-5.04;93.26
39141;BME280;24875;48.436;10.298;2023-02-10T01:05:49;98101.03;;;-5.17;92.18
39141;BME280;24875;48.436;10.298;2023-02-10T01:08:16;98101.31;;;-5.28;93.01
39141;BME280;24875;48.436;10.298;2023-02-10T01:10:42;98099.50;;;-5.24;93.89
39141;BME280;24875;48.436;10.298;2023-02-10T01:13:10;98097.44;;;-5.12;93.75
39141;BME280;24875;48.436;10.298;2023-02-10T01:15:41;98089.16;;;-5.21;94.16
39141;BME280;24875;48.436;10.298;2023-02-10T01:18:07;98100.47;;;-5.28;94.83
39141;BME280;24875;48.436;10.298;2023-02-10T01:20:37;98102.00;;;-5.21;94.50
39141;BME280;24875;48.436;10.298;2023-02-10T01:23:04;98103.91;;;-5.29;95.17
39141;BME280;24875;48.436;10.298;2023-02-10T01:25:32;98101.31;;;-5.28;94.80
39141;BME280;24875;48.436;10.298;2023-02-10T01:27:59;98108.53;;;-5.43;93.70
39141;BME280;24875;48.436;10.298;2023-02-10T01:30:25;98110.88;;;-5.34;93.47
39141;BME280;24875;48.436;10.298;2023-02-10T01:32:52;98110.09;;;-5.38;93.07
39141;BME280;24875;48.436;10.298;2023-02-10T01:35:18;98112.66;;;-5.38;92.67
39141;BME280;24875;48.436;10.298;2023-02-10T01:37:46;98113.53;;;-5.39;92.61
39141;BME280;24875;48.436;10.298;2023-02-10T01:40:13;98112.97;;;-5.49;93.68
39141;BME280;24875;48.436;10.298;2023-02-10T01:42:40;98115.53;;;-5.49;93.35
39141;BME280;24875;48.436;10.298;2023-02-10T01:45:18;98113.53;;;-5.39;93.33
39141;BME280;24875;48.436;10.298;2023-02-10T01:47:46;98116.38;;;-5.49;92.79
39141;BME280;24875;48.436;10.298;2023-02-10T01:50:16;98123.28;;;-5.51;92.97
39141;BME280;24875;48.436;10.298;2023-02-10T01:52:44;98126.44;;;-5.40;92.60
39141;BME280;24875;48.436;10.298;2023-02-10T01:55:15;98118.91;;;-5.47;91.74
39141;BME280;24875;48.436;10.298;2023-02-10T01:57:43;98115.75;;;-5.58;92.92
39141;BME280;24875;48.436;10.298;2023-02-10T02:00:13;98122.47;;;-5.53;93.09
39141;BME280;24875;48.436;10.298;2023-02-10T02:02:41;98107.88;;;-5.52;92.06
39141;BME280;24875;48.436;10.298;2023-02-10T02:05:19;98120.59;;;-5.46;91.79
39141;BME280;24875;48.436;10.298;2023-02-10T02:07:46;98115.09;;;-5.68;91.60
39141;BME280;24875;48.436;10.298;2023-02-10T02:10:15;98116.47;;;-5.52;92.27
39141;BME280;24875;48.436;10.298;2023-02-10T02:12:48;98114.84;;;-5.56;92.17
39141;BME280;24875;48.436;10.298;2023-02-10T02:15:26;98120.72;;;-5.52;92.53
39141;BME280;24875;48.436;10.298;2023-02-10T02:18:02;98114.91;;;-5.59;91.41
39141;BME280;24875;48.436;10.298;2023-02-10T02:20:50;98112.53;;;-5.68;92.25
39141;BME280;24875;48.436;10.298;2023-02-10T02:23:39;98104.63;;;-5.59;92.92
39141;BME280;24875;48.436;10.298;2023-02-10T02:26:24;98105.47;;;-5.58;92.10
39141;BME280;24875;48.436;10.298;2023-02-10T02:29:10;98109.72;;;-5.56;92.01
39141;BME280;24875;48.436;10.298;2023-02-10T02:31:57;98106.41;;;-5.61;92.35
39141;BME280;24875;48.436;10.298;2023-02-10T02:34:30;98105.56;;;-5.63;92.56
39141;BME280;24875;48.436;10.298;2023-02-10T02:37:03;98111.59;;;-5.64;91.90
39141;BME280;24875;48.436;10.298;2023-02-10T02:39:32;98106.00;;;-5.79;90.97
39141;BME280;24875;48.436;10.298;2023-02-10T02:42:15;98104.81;;;-5.66;93.12
39141;BME280;24875;48.436;10.298;2023-02-10T02:44:42;98108.22;;;-5.66;92.72
39141;BME280;24875;48.436;10.298;2023-02-10T02:47:15;98102.28;;;-5.68;92.75
39141;BME280;24875;48.436;10.298;2023-02-10T02:49:49;98090.13;;;-5.61;94.51
39141;BME280;24875;48.436;10.298;2023-02-10T02:52:24;98092.59;;;-5.57;95.14
39141;BME280;24875;48.436;10.298;2023-02-10T02:54:57;98079.72;;;-5.55;96.89
39141;BME280;24875;48.436;10.298;2023-02-10T02:57:30;98089.59;;;-5.39;99.92
39141;BME280;24875;48.436;10.298;2023-02-10T03:00:04;98081.53;;;-5.24;100.00
39141;BME280;24875;48.436;10.298;2023-02-10T03:02:34;98075.28;;;-5.16;100.00
39141;BME280;24875;48.436;10.298;2023-02-10T03:05:02;98075.25;;;-5.14;100.00
39141;BME280;24875;48.436;10.298;2023-02-10T03:07:28;98083.50;;;-5.35;98.05
39141;BME280;24875;48.436;10.298;2023-02-10T03:09:55;98085.00;;;-5.27;99.18
39141;BME280;24875;48.436;10.298;2023-02-10T03:12:21;98092.94;;;-5.36;98.90
39141;BME280;24875;48.436;10.298;2023-02-10T03:14:48;98099.88;;;-5.39;100.00
39141;BME280;24875;48.436;10.298;2023-02-10T03:17:14;98102.31;;;-5.33;99.37
39141;BME280;24875;48.436;10.298;2023-02-10T03:19:42;98112.50;;;-5.30;98.88
39141;BME280;24875;48.436;10.298;2023-02-10T03:22:08;98122.94;;;-5.38;98.97
39141;BME280;24875;48.436;10.298;2023-02-10T03:24:35;98122.84;;;-5.33;99.43
39141;BME280;24875;48.436;10.298;2023-02-10T03:27:01;98130.59;;;-5.36;99.73
39141;BME280;24875;48.436;10.298;2023-02-10T03:29:30;98137.44;;;-5.35;99.73
39141;BME280;24875;48.436;10.298;2023-02-10T03:31:57;98141.97;;;-5.44;100.00
39141;BME280;24875;48.436;10.298;2023-02-10T03:34:26;98146.94;;;-5.37;100.00
39141;BME280;24875;48.436;10.298;2023-02-10T03:36:54;98152.78;;;-5.32;100.00
39141;BME280;24875;48.436;10.298;2023-02-10T03:39:21;98147.94;;;-5.44;100.00
39141;BME280;24875;48.436;10.298;2023-02-10T03:41:47;98150.59;;;-5.47;100.00
39141;BME280;24875;48.436;10.298;2023-02-10T03:44:14;98158.13;;;-5.41;99.77
39141;BME280;24875;48.436;10.298;2023-02-10T03:46:40;98156.38;;;-5.39;99.70
39141;BME280;24875;48.436;10.298;2023-02-10T03:49:07;98154.13;;;-5.52;97.69
39141;BME280;24875;48.436;10.298;2023-02-10T03:51:33;98152.63;;;-5.61;98.09
39141;BME280;24875;48.436;10.298;2023-02-10T03:54:01;98160.91;;;-5.50;99.58
39141;BME280;24875;48.436;10.298;2023-02-10T03:56:27;98161.81;;;-5.52;98.95
39141;BME280;24875;48.436;10.298;2023-02-10T03:58:54;98158.41;;;-5.53;98.11
39141;BME280;24875;48.436;10.298;2023-02-10T04:01:21;98162.47;;;-5.43;98.57
39141;BME280;24875;48.436;10.298;2023-02-10T04:03:47;98164.22;;;-5.45;98.43
39141;BME280;24875;48.436;10.298;2023-02-10T04:06:14;98157.34;;;-5.43;98.97
39141;BME280;24875;48.436;10.298;2023-02-10T04:08:40;98159.06;;;-5.45;96.59
39141;BME280;24875;48.436;10.298;2023-02-10T04:11:08;98165.78;;;-5.38;95.68
39141;BME280;24875;48.436;10.298;2023-02-10T04:13:35;98173.00;;;-5.55;95.32
39141;BME280;24875;48.436;10.298;2023-02-10T04:16:02;98175.28;;;-5.78;94.77
39141;BME280;24875;48.436;10.298;2023-02-10T04:18:30;98165.91;;;-5.79;95.39
39141;BME280;24875;48.436;10.298;2023-02-10T04:20:56;98175.53;;;-5.90;95.91
39141;BME280;24875;48.436;10.298;2023-02-10T04:23:23;98174.72;;;-5.92;97.39
39141;BME280;24875;48.436;10.298;2023-02-10T04:25:49;98173.03;;;-5.93;97.40
39141;BME280;24875;48.436;10.298;2023-02-10T04:28:17;98179.81;;;-5.90;96.19
39141;BME280;24875;48.436;10.298;2023-02-10T04:30:43;98174.91;;;-6.01;96.47
39141;BME280;24875;48.436;10.298;2023-02-10T04:33:10;98176.69;;;-6.04;97.90
39141;BME280;24875;48.436;10.298;2023-02-10T04:35:36;98183.56;;;-6.04;98.17
39141;BME280;24875;48.436;10.298;2023-02-10T04:38:03;98182.63;;;-6.02;96.94
39141;BME280;24875;48.436;10.298;2023-02-10T04:40:30;98177.09;;;-6.23;95.17
39141;BME280;24875;48.436;10.298;2023-02-10T04:42:56;98176.13;;;-6.18;96.59
39141;BME280;24875;48.436;10.298;2023-02-10T04:45:24;98171.47;;;-6.00;97.32
39141;BME280;24875;48.436;10.298;2023-02-10T04:47:50;98173.31;;;-6.06;96.23
39141;BME280;24875;48.436;10.298;2023-02-10T04:50:17;98172.22;;;-5.95;96.17
39141;BME280;24875;48.436;10.298;2023-02-10T04:52:43;98177.22;;;-5.89;95.38
39141;BME280;24875;48.436;10.298;2023-02-10T04:55:10;98186.69;;;-5.92;95.08
39141;BME280;24875;48.436;10.298;2023-02-10T04:57:36;98189.09;;;-5.85;94.77
39141;BME280;24875;48.436;10.298;2023-02-10T05:00:03;98186.66;;;-5.89;94.16
39141;BME280;24875;48.436;10.298;2023-02-10T05:02:32;98179.75;;;-5.87;94.57
39141;BME280;24875;48.436;10.298;2023-02-10T05:04:58;98177.16;;;-5.86;96.15
39141;BME280;24875;48.436;10.298;2023-02-10T05:07:25;98184.06;;;-5.88;96.19
39141;BME280;24875;48.436;10.298;2023-02-10T05:09:51;98183.00;;;-5.79;95.40
39141;BME280;24875;48.436;10.298;2023-02-10T05:12:18;98178.34;;;-6.02;95.77
39141;BME280;24875;48.436;10.298;2023-02-10T05:14:44;98183.22;;;-5.90;95.13
39141;BME280;24875;48.436;10.298;2023-02-10T05:17:11;98190.16;;;-5.95;93.13
39141;BME280;24875;48.436;10.298;2023-02-10T05:19:39;98183.34;;;-5.94;93.61
39141;BME280;24875;48.436;10.298;2023-02-10T05:22:05;98190.28;;;-5.99;94.06
39141;BME280;24875;48.436;10.298;2023-02-10T05:24:32;98184.09;;;-5.91;93.39
39141;BME280;24875;48.436;10.298;2023-02-10T05:26:58;98184.22;;;-5.95;91.58
39141;BME280;24875;48.436;10.298;2023-02-10T05:29:24;98181.75;;;-6.01;90.02
39141;BME280;24875;48.436;10.298;2023-02-10T05:31:51;98182.75;;;-6.06;90.24
39141;BME280;24875;48.436;10.298;2023-02-10T05:34:17;98187.31;;;-6.22;91.59
39141;BME280;24875;48.436;10.298;2023-02-10T05:36:45;98187.97;;;-6.12;92.49
39141;BME280;24875;48.436;10.298;2023-02-10T05:39:12;98203.34;;;-6.09;92.39
39141;BME280;24875;48.436;10.298;2023-02-10T05:41:51;98197.44;;;-6.14;91.53
39141;BME280;24875;48.436;10.298;2023-02-10T05:44:18;98203.41;;;-6.14;92.03
39141;BME280;24875;48.436;10.298;2023-02-10T05:46:45;98201.56;;;-6.07;91.62
39141;BME280;24875;48.436;10.298;2023-02-10T05:49:11;98213.59;;;-6.09;92.17
39141;BME280;24875;48.436;10.298;2023-02-10T05:51:38;98218.72;;;-6.09;92.82
39141;BME280;24875;48.436;10.298;2023-02-10T05:54:06;98220.38;;;-6.08;94.01
39141;BME280;24875;48.436;10.298;2023-02-10T05:56:33;98227.13;;;-6.02;94.23
39141;BME280;24875;48.436;10.298;2023-02-10T05:58:59;98225.34;;;-6.00;94.29
39141;BME280;24875;48.436;10.298;2023-02-10T06:01:27;98227.00;;;-5.96;94.82
39141;BME280;24875;48.436;10.298;2023-02-10T06:03:54;98221.91;;;-5.99;94.58
39141;BME280;24875;48.436;10.298;2023-02-10T06:06:20;98221.13;;;-6.01;95.01
39141;BME280;24875;48.436;10.298;2023-02-10T06:08:47;98218.53;;;-6.02;95.05
39141;BME280;24875;48.436;10.298;2023-02-10T06:11:15;98229.53;;;-5.94;93.96
39141;BME280;24875;48.436;10.298;2023-02-10T06:13:42;98234.22;;;-6.15;93.57
39141;BME280;24875;48.436;10.298;2023-02-10T06:16:09;98227.47;;;-6.19;93.67
39141;BME280;24875;48.436;10.298;2023-02-10T06:18:36;98229.19;;;-6.21;94.71
39141;BME280;24875;48.436;10.298;2023-02-10T06:21:03;98239.25;;;-6.09;94.96
39141;BME280;24875;48.436;10.298;2023-02-10T06:23:29;98244.16;;;-5.99;94.16
39141;BME280;24875;48.436;10.298;2023-02-10T06:25:57;98247.72;;;-6.04;92.82
39141;BME280;24875;48.436;10.298;2023-02-10T06:28:26;98247.75;;;-6.07;92.53
39141;BME280;24875;48.436;10.298;2023-02-10T06:30:53;98256.63;;;-6.23;92.74
39141;BME280;24875;48.436;10.298;2023-02-10T06:33:20;98252.06;;;-6.09;93.42
39141;BME280;24875;48.436;10.298;2023-02-10T06:35:47;98262.34;;;-6.11;91.90
39141;BME280;24875;48.436;10.298;2023-02-10T06:38:13;98257.47;;;-6.24;92.44
39141;BME280;24875;48.436;10.298;2023-02-10T06:40:40;98261.94;;;-6.35;92.64
39141;BME280;24875;48.436;10.298;2023-02-10T06:43:06;98256.78;;;-6.32;94.21
39141;BME280;24875;48.436;10.298;2023-02-10T06:45:34;98267.38;;;-6.05;93.64
39141;BME280;24875;48.436;10.298;2023-02-10T06:48:01;98265.75;;;-6.09;92.61
39141;BME280;24875;48.436;10.298;2023-02-10T06:50:27;98263.22;;;-6.10;92.25
39141;BME280;24875;48.436;10.298;2023-02-10T06:52:54;98262.28;;;-6.06;92.60
39141;BME280;24875;48.436;10.298;2023-02-10T06:55:20;98269.59;;;-5.87;92.48
39141;BME280;24875;48.436;10.298;2023-02-10T06:57:47;98278.22;;;-5.91;91.84
39141;BME280;24875;48.436;10.298;2023-02-10T07:00:14;98273.75;;;-5.80;92.03
39141;BME280;24875;48.436;10.298;2023-02-10T07:02:42;98276.41;;;-5.86;92.49
39141;BME280;24875;48.436;10.298;2023-02-10T07:05:10;98278.06;;;-5.84;93.11
39141;BME280;24875;48.436;10.298;2023-02-10T07:07:37;98279.53;;;-5.72;92.45
39141;BME280;24875;48.436;10.298;2023-02-10T07:10:04;98267.44;;;-5.67;91.61
39141;BME280;24875;48.436;10.298;2023-02-10T07:12:30;98270.97;;;-5.73;90.81
39141;BME280;24875;48.436;10.298;2023-02-10T07:14:57;98269.19;;;-5.69;90.94
39141;BME280;24875;48.436;10.298;2023-02-10T07:17:23;98273.34;;;-5.64;91.20
39141;BME280;24875;48.436;10.298;2023-02-10T07:19:51;98277.44;;;-5.55;91.88
39141;BME280;24875;48.436;10.298;2023-02-10T07:22:18;98285.06;;;-5.51;92.36
39141;BME280;24875;48.436;10.298;2023-02-10T07:24:45;98279.72;;;-5.41;93.64
39141;BME280;24875;48.436;10.298;2023-02-10T07:27:12;98272.59;;;-5.28;93.31
39141;BME280;24875;48.436;10.298;2023-02-10T07:29:38;98284.28;;;-5.17;92.48
39141;BME280;24875;48.436;10.298;2023-02-10T07:32:05;98289.44;;;-5.15;91.82
39141;BME280;24875;48.436;10.298;2023-02-10T07:34:32;98293.47;;;-5.05;93.87
39141;BME280;24875;48.436;10.298;2023-02-10T07:37:01;98300.84;;;-4.90;94.48
39141;BME280;24875;48.436;10.298;2023-02-10T07:39:27;98310.25;;;-4.89;95.81
39141;BME280;24875;48.436;10.298;2023-02-10T07:41:54;98316.47;;;-4.99;97.45
39141;BME280;24875;48.436;10.298;2023-02-10T07:44:20;98321.38;;;-4.89;98.41
39141;BME280;24875;48.436;10.298;2023-02-10T07:46:47;98330.53;;;-4.78;99.02
39141;BME280;24875;48.436;10.298;2023-02-10T07:49:13;98323.28;;;-4.61;98.95
39141;BME280;24875;48.436;10.298;2023-02-10T07:51:40;98327.00;;;-4.37;98.07
39141;BME280;24875;48.436;10.298;2023-02-10T07:54:09;98323.84;;;-4.15;97.28
39141;BME280;24875;48.436;10.298;2023-02-10T07:56:36;98312.63;;;-4.13;96.54
39141;BME280;24875;48.436;10.298;2023-02-10T07:59:03;98318.25;;;-3.99;95.80
39141;BME280;24875;48.436;10.298;2023-02-10T08:01:29;98306.69;;;-3.83;95.92
39141;BME280;24875;48.436;10.298;2023-02-10T08:03:56;98312.53;;;-3.76;95.86
39141;BME280;24875;48.436;10.298;2023-02-10T08:06:24;98301.63;;;-3.56;96.11
39141;BME280;24875;48.436;10.298;2023-02-10T08:08:52;98300.47;;;-3.46;96.58
39141;BME280;24875;48.436;10.298;2023-02-10T08:11:20;98309.34;;;-3.25;96.45
39141;BME280;24875;48.436;10.298;2023-02-10T08:13:46;98300.44;;;-3.15;96.41
39141;BME280;24875;48.436;10.298;2023-02-10T08:16:12;98297.28;;;-2.96;99.00
39141;BME280;24875;48.436;10.298;2023-02-10T08:18:39;98288.88;;;-2.75;100.00
39141;BME280;24875;48.436;10.298;2023-02-10T08:21:06;98299.66;;;-2.90;100.00
39141;BME280;24875;48.436;10.298;2023-02-10T08:23:33;98299.00;;;-2.69;100.00
39141;BME280;24875;48.436;10.298;2023-02-10T08:26:02;98299.19;;;-2.48;100.00
39141;BME280;24875;48.436;10.298;2023-02-10T08:28:30;98301.16;;;-2.30;100.00
39141;BME280;24875;48.436;10.298;2023-02-10T08:30:58;98308.25;;;-2.11;100.00
39141;BME280;24875;48.436;10.298;2023-02-10T08:33:25;98313.25;;;-2.06;100.00
39141;BME280;24875;48.436;10.298;2023-02-10T08:35:52;98318.38;;;-2.05;100.00
39141;BME280;24875;48.436;10.298;2023-02-10T08:38:18;98306.75;;;-1.92;100.00
39141;BME280;24875;48.436;10.298;2023-02-10T08:40:45;98305.69;;;-1.86;100.00
39141;BME280;24875;48.436;10.298;2023-02-10T08:43:11;98308.50;;;-1.70;100.00
39141;BME280;24875;48.436;10.298;2023-02-10T08:45:39;98301.25;;;-1.59;100.00
39141;BME280;24875;48.436;10.298;2023-02-10T08:48:06;98306.13;;;-1.51;99.80
39141;BME280;24875;48.436;10.298;2023-02-10T08:50:32;98307.28;;;-1.60;100.00
39141;BME280;24875;48.436;10.298;2023-02-10T08:52:59;98312.09;;;-1.49;100.00
39141;BME280;24875;48.436;10.298;2023-02-10T08:55:25;98314.66;;;-1.49;98.58
39141;BME280;24875;48.436;10.298;2023-02-10T08:57:52;98307.59;;;-1.22;98.55
39141;BME280;24875;48.436;10.298;2023-02-10T09:00:18;98305.56;;;-1.14;98.94
39141;BME280;24875;48.436;10.298;2023-02-10T09:02:48;98305.34;;;-1.08;99.50
39141;BME280;24875;48.436;10.298;2023-02-10T09:05:14;98298.88;;;-0.96;98.67
39141;BME280;24875;48.436;10.298;2023-02-10T09:07:41;98297.34;;;-0.79;98.72
39141;BME280;24875;48.436;10.298;2023-02-10T09:10:09;98303.81;;;-0.69;97.10
39141;BME280;24875;48.436;10.298;2023-02-10T09:12:36;98301.81;;;-0.61;97.63
39141;BME280;24875;48.436;10.298;2023-02-10T09:15:03;98297.31;;;-0.58;97.92
39141;BME280;24875;48.436;10.298;2023-02-10T09:17:29;98289.63;;;-0.59;97.56
39141;BME280;24875;48.436;10.298;2023-02-10T09:19:57;98296.66;;;-0.41;97.24
39141;BME280;24875;48.436;10.298;2023-02-10T09:22:24;98297.16;;;-0.53;97.02
39141;BME280;24875;48.436;10.298;2023-02-10T09:24:50;98300.41;;;-0.48;97.66
39141;BME280;24875;48.436;10.298;2023-02-10T09:27:17;98308.28;;;-0.30;96.59
39141;BME280;24875;48.436;10.298;2023-02-10T09:29:44;98305.16;;;-0.16;97.23
39141;BME280;24875;48.436;10.298;2023-02-10T09:32:10;98309.50;;;0.03;95.62
39141;BME280;24875;48.436;10.298;2023-02-10T09:34:37;98313.06;;;0.00;95.97
39141;BME280;24875;48.436;10.298;2023-02-10T09:37:06;98314.00;;;0.19;96.60
39141;BME280;24875;48.436;10.298;2023-02-10T09:39:33;98317.56;;;0.17;95.63
39141;BME280;24875;48.436;10.298;2023-02-10T09:42:05;98319.41;;;0.13;95.47
39141;BME280;24875;48.436;10.298;2023-02-10T09:44:38;98327.53;;;0.26;94.83
39141;BME280;24875;48.436;10.298;2023-02-10T09:47:27;98320.44;;;0.69;93.69
39141;BME280;24875;48.436;10.298;2023-02-10T09:50:13;98316.41;;;0.62;93.66
39141;BME280;24875;48.436;10.298;2023-02-10T09:53:00;98317.72;;;0.90;92.71
39141;BME280;24875;48.436;10.298;2023-02-10T09:55:30;98318.44;;;0.94;92.48
39141;BME280;24875;48.436;10.298;2023-02-10T09:58:00;98317.88;;;1.06;91.63
39141;BME280;24875;48.436;10.298;2023-02-10T10:00:33;98323.69;;;1.11;91.83
39141;BME280;24875;48.436;10.298;2023-02-10T10:03:03;98314.50;;;1.22;91.27
39141;BME280;24875;48.436;10.298;2023-02-10T10:05:38;98325.41;;;1.30;91.97
39141;BME280;24875;48.436;10.298;2023-02-10T10:08:17;98317.22;;;1.56;90.54
39141;BME280;24875;48.436;10.298;2023-02-10T10:10:48;98317.63;;;1.65;89.71
39141;BME280;24875;48.436;10.298;2023-02-10T10:13:20;98313.47;;;1.80;87.76
39141;BME280;24875;48.436;10.298;2023-02-10T10:16:00;98310.28;;;1.73;89.15
39141;BME280;24875;48.436;10.298;2023-02-10T10:18:32;98314.81;;;1.70;88.42
39141;BME280;24875;48.436;10.298;2023-02-10T10:21:10;98312.78;;;1.76;88.24
39141;BME280;24875;48.436;10.298;2023-02-10T10:23:50;98312.94;;;1.90;87.14
39141;BME280;24875;48.436;10.298;2023-02-10T10:26:36;98311.72;;;1.97;88.03
39141;BME280;24875;48.436;10.298;2023-02-10T10:29:19;98307.81;;;1.88;87.11
39141;BME280;24875;48.436;10.298;2023-02-10T10:31:48;98309.06;;;2.15;86.13
39141;BME280;24875;48.436;10.298;2023-02-10T10:34:18;98302.88;;;2.18;85.75
39141;BME280;24875;48.436;10.298;2023-02-10T10:36:49;98302.31;;;2.11;87.19
39141;BME280;24875;48.436;10.298;2023-02-10T10:39:28;98293.44;;;2.32;85.19
39141;BME280;24875;48.436;10.298;2023-02-10T10:42:01;98295.19;;;2.48;84.59
39141;BME280;24875;48.436;10.298;2023-02-10T10:44:31;98300.25;;;2.35;83.37
39141;BME280;24875;48.436;10.298;2023-02-10T10:47:04;98305.75;;;2.62;85.02
39141;BME280;24875;48.436;10.298;2023-02-10T10:49:34;98300.28;;;2.99;82.26
39141;BME280;24875;48.436;10.298;2023-02-10T10:52:00;98291.94;;;2.93;81.16
39141;BME280;24875;48.436;10.298;2023-02-10T10:54:29;98282.13;;;2.98;80.98
39141;BME280;24875;48.436;10.298;2023-02-10T10:57:00;98282.50;;;3.07;80.72
39141;BME280;24875;48.436;10.298;2023-02-10T10:59:31;98276.53;;;3.20;80.25
39141;BME280;24875;48.436;10.298;2023-02-10T11:02:10;98278.13;;;3.23;80.73
39141;BME280;24875;48.436;10.298;2023-02-10T11:04:37;98269.97;;;3.29;80.04
39141;BME280;24875;48.436;10.298;2023-02-10T11:07:09;98270.72;;;3.31;78.78
39141;BME280;24875;48.436;10.298;2023-02-10T11:09:40;98262.91;;;3.31;78.84
39141;BME280;24875;48.436;10.298;2023-02-10T11:12:16;98269.63;;;3.04;79.99
39141;BME280;24875;48.436;10.298;2023-02-10T11:14:48;98263.06;;;3.43;76.22
39141;BME280;24875;48.436;10.298;2023-02-10T11:17:22;98257.97;;;3.42;74.67
39141;BME280;24875;48.436;10.298;2023-02-10T11:19:55;98250.63;;;3.48;77.03
39141;BME280;24875;48.436;10.298;2023-02-10T11:22:22;98257.34;;;3.52;77.08
39141;BME280;24875;48.436;10.298;2023-02-10T11:24:52;98248.31;;;3.88;75.98
39141;BME280;24875;48.436;10.298;2023-02-10T11:27:19;98251.16;;;3.84;74.05
39141;BME280;24875;48.436;10.298;2023-02-10T11:29:47;98246.13;;;4.10;72.39
39141;BME280;24875;48.436;10.298;2023-02-10T11:32:18;98233.72;;;4.00;73.97
39141;BME280;24875;48.436;10.298;2023-02-10T11:34:46;98237.75;;;4.19;71.50
39141;BME280;24875;48.436;10.298;2023-02-10T11:37:20;98232.06;;;4.13;71.95
39141;BME280;24875;48.436;10.298;2023-02-10T11:39:48;98230.16;;;4.01;71.61
39141;BME280;24875;48.436;10.298;2023-02-10T11:42:19;98223.88;;;4.19;68.76
39141;BME280;24875;48.436;10.298;2023-02-10T11:44:56;98218.38;;;4.23;69.24
39141;BME280;24875;48.436;10.298;2023-02-10T11:47:24;98216.50;;;4.25;68.44
39141;BME280;24875;48.436;10.298;2023-02-10T11:49:50;98210.69;;;4.49;68.37
39141;BME280;24875;48.436;10.298;2023-02-10T11:52:18;98219.72;;;4.85;67.86
39141;BME280;24875;48.436;10.298;2023-02-10T11:54:46;98214.38;;;5.01;64.49
39141;BME280;24875;48.436;10.298;2023-02-10T11:57:24;98218.03;;;4.84;65.12
39141;BME280;24875;48.436;10.298;2023-02-10T12:00:16;98212.25;;;4.66;65.80
39141;BME280;24875;48.436;10.298;2023-02-10T12:02:59;98208.47;;;5.11;65.30
39141;BME280;24875;48.436;10.298;2023-02-10T12:05:37;98216.84;;;4.76;63.37
39141;BME280;24875;48.436;10.298;2023-02-10T12:08:14;98208.78;;;5.33;62.50
39141;BME280;24875;48.436;10.298;2023-02-10T12:10:45;98204.34;;;5.21;61.90
39141;BME280;24875;48.436;10.298;2023-02-10T12:13:25;98209.38;;;4.84;61.67
39141;BME280;24875;48.436;10.298;2023-02-10T12:16:04;98202.31;;;5.12;61.27
39141;BME280;24875;48.436;10.298;2023-02-10T12:18:47;98207.66;;;4.97;57.16
39141;BME280;24875;48.436;10.298;2023-02-10T12:24:20;98209.28;;;4.72;58.25
39141;BME280;24875;48.436;10.298;2023-02-10T12:26:57;98202.19;;;4.60;59.52
39141;BME280;24875;48.436;10.298;2023-02-10T12:29:38;98202.19;;;4.87;59.63
39141;BME280;24875;48.436;10.298;2023-02-10T12:32:14;98200.16;;;4.79;61.18
39141;BME280;24875;48.436;10.298;2023-02-10T12:35:04;98194.84;;;4.52;60.62
39141;BME280;24875;48.436;10.298;2023-02-10T12:37:40;98197.16;;;4.57;60.39
39141;BME280;24875;48.436;10.298;2023-02-10T12:40:23;98207.97;;;4.79;61.32
39141;BME280;24875;48.436;10.298;2023-02-10T12:43:01;98201.25;;;4.75;61.38
39141;BME280;24875;48.436;10.298;2023-02-10T12:45:33;98195.66;;;4.67;61.94
39141;BME280;24875;48.436;10.298;2023-02-10T12:48:09;98192.22;;;4.80;61.15
39141;BME280;24875;48.436;10.298;2023-02-10T12:50:52;98187.00;;;4.80;61.35
39141;BME280;24875;48.436;10.298;2023-02-10T12:53:25;98185.88;;;4.70;62.23
39141;BME280;24875;48.436;10.298;2023-02-10T12:55:56;98186.88;;;4.82;62.96
39141;BME280;24875;48.436;10.298;2023-02-10T12:58:29;98185.00;;;4.83;63.08
39141;BME280;24875;48.436;10.298;2023-02-10T13:01:05;98182.03;;;4.76;61.87
39141;BME280;24875;48.436;10.298;2023-02-10T13:03:37;98187.16;;;4.63;62.43
39141;BME280;24875;48.436;10.298;2023-02-10T13:06:19;98184.19;;;4.83;61.46
39141;BME280;24875;48.436;10.298;2023-02-10T13:08:49;98184.50;;;4.65;63.16